sensor_id;sensor_type;location;lat;lon;timestamp;temperature;humidity
23114;DHT22;11726;50.122;8.832;2023-04-24T00:01:20;13.00;99.90
23114;DHT22;11726;50.122;8.832;2023-04-24T00:03:47;13.00;99.90
23114;DHT22;11726;50.122;8.832;2023-04-24T00:06:13;13.00;99.90
23114;DHT22;11726;50.122;8.832;2023-04-24T00:08:40;13.00;99.90
23114;DHT22;11726;50.122;8.832;2023-04-24T00:11:07;13.10;99.90
23114;DHT22;11726;50.122;8.832;2023-04-24T00:13:35;13.10;99.90
23114;DHT22;11726;50.122;8.832;2023-04-24T00:16:02;13.10;99.90
23114;DHT22;11726;50.122;8.832;2023-04-24T00:18:28;13.20;99.90
23114;DHT22;11726;50.122;8.832;2023-04-24T00:20:55;13.10;99.90
23114;DHT22;11726;50.122;8.832;2023-04-24T00:23:21;13.10;99.90
23114;DHT22;11726;50.122;8.832;2023-04-24T00:25:48;13.10;99.90
23114;DHT22;11726;50.122;8.832;2023-04-24T00:28:14;13.10;99.90
23114;DHT22;11726;50.122;8.832;2023-04-24T00:30:41;13.10;99.90
23114;DHT22;11726;50.122;8.832;2023-04-24T00:33:08;13.10;99.90
23114;DHT22;11726;50.122;8.832;2023-04-24T00:35:35;13.10;99.90
23114;DHT22;11726;50.122;8.832;2023-04-24T00:38:01;13.10;99.90
23114;DHT22;11726;50.122;8.832;2023-04-24T00:40:28;13.10;99.90
23114;DHT22;11726;50.122;8.832;2023-04-24T00:42:55;13.10;99.90
23114;DHT22;11726;50.122;8.832;2023-04-24T00:45:22;13.00;99.90
23114;DHT22;11726;50.122;8.832;2023-04-24T00:47:48;13.00;99.90
23114;DHT22;11726;50.122;8.832;2023-04-24T00:50:16;13.00;99.90
23114;DHT22;11726;50.122;8.832;2023-04-24T00:52:43;13.10;99.90
23114;DHT22;11726;50.122;8.832;2023-04-24T00:55:10;13.00;99.90
23114;DHT22;11726;50.122;8.832;2023-04-24T00:57:37;13.00;99.90
23114;DHT22;11726;50.122;8.832;2023-04-24T01:00:05;13.00;99.90
23114;DHT22;11726;50.122;8.832;2023-04-24T01:02:32;13.00;99.90
23114;DHT22;11726;50.122;8.832;2023-04-24T01:05:01;13.00;99.90
23114;DHT22;11726;50.122;8.832;2023-04-24T01:07:28;13.10;99.90
23114;DHT22;11726;50.122;8.832;2023-04-24T01:09:55;13.00;99.90
23114;DHT22;11726;50.122;8.832;2023-04-24T01:12:22;13.00;99.90
23114;DHT22;11726;50.122;8.832;2023-04-24T01:14:49;13.00;99.90
23114;DHT22;11726;50.122;8.832;2023-04-24T01:17:15;13.00;99.90
23114;DHT22;11726;50.122;8.832;2023-04-24T01:19:42;12.90;99.90
23114;DHT22;11726;50.122;8.832;2023-04-24T01:22:13;12.90;99.90
23114;DHT22;11726;50.122;8.832;2023-04-24T01:24:41;12.90;99.90
23114;DHT22;11726;50.122;8.832;2023-04-24T01:27:10;12.90;99.90
23114;DHT22;11726;50.122;8.832;2023-04-24T01:29:36;12.90;99.90
23114;DHT22;11726;50.122;8.832;2023-04-24T01:32:04;12.90;99.90
23114;DHT22;11726;50.122;8.832;2023-04-24T01:34:31;12.90;99.90
23114;DHT22;11726;50.122;8.832;2023-04-24T01:36:58;12.90;99.90
23114;DHT22;11726;50.122;8.832;2023-04-24T01:39:25;12.90;99.90
23114;DHT22;11726;50.122;8.832;2023-04-24T01:41:52;12.90;99.90
23114;DHT22;11726;50.122;8.832;2023-04-24T01:44:20;12.90;99.90
23114;DHT22;11726;50.122;8.832;2023-04-24T01:46:47;12.90;99.90
23114;DHT22;11726;50.122;8.832;2023-04-24T01:49:14;12.90;99.90
23114;DHT22;11726;50.122;8.832;2023-04-24T01:51:41;12.90;99.90
23114;DHT22;11726;50.122;8.832;2023-04-24T01:54:08;12.80;99.90
23114;DHT22;11726;50.122;8.832;2023-04-24T01:56:36;12.80;99.90
23114;DHT22;11726;50.122;8.832;2023-04-24T01:59:03;12.80;99.90
23114;DHT22;11726;50.122;8.832;2023-04-24T02:01:36;12.70;99.90
23114;DHT22;11726;50.122;8.832;2023-04-24T02:04:04;12.70;99.90
23114;DHT22;11726;50.122;8.832;2023-04-24T02:06:31;12.70;99.90
23114;DHT22;11726;50.122;8.832;2023-04-24T02:08:58;12.80;99.90
23114;DHT22;11726;50.122;8.832;2023-04-24T02:11:25;12.80;99.90
23114;DHT22;11726;50.122;8.832;2023-04-24T02:13:52;12.80;99.90
23114;DHT22;11726;50.122;8.832;2023-04-24T02:16:19;12.80;99.90
23114;DHT22;11726;50.122;8.832;2023-04-24T02:18:46;12.90;99.90
23114;DHT22;11726;50.122;8.832;2023-04-24T02:21:12;12.80;99.90
23114;DHT22;11726;50.122;8.832;2023-04-24T02:23:39;12.90;99.90
23114;DHT22;11726;50.122;8.832;2023-04-24T02:26:06;12.90;99.90
23114;DHT22;11726;50.122;8.832;2023-04-24T02:28:32;12.90;99.90
23114;DHT22;11726;50.122;8.832;2023-04-24T02:30:59;12.90;99.90
23114;DHT22;11726;50.122;8.832;2023-04-24T02:33:26;12.80;99.90
23114;DHT22;11726;50.122;8.832;2023-04-24T02:35:52;12.90;99.90
23114;DHT22;11726;50.122;8.832;2023-04-24T02:38:19;12.90;99.90
23114;DHT22;11726;50.122;8.832;2023-04-24T02:40:45;12.80;99.90
23114;DHT22;11726;50.122;8.832;2023-04-24T02:43:12;12.70;99.90
23114;DHT22;11726;50.122;8.832;2023-04-24T02:45:39;12.70;99.90
23114;DHT22;11726;50.122;8.832;2023-04-24T02:48:05;12.60;99.90
23114;DHT22;11726;50.122;8.832;2023-04-24T02:50:32;12.60;99.90
23114;DHT22;11726;50.122;8.832;2023-04-24T02:52:59;12.60;99.90
23114;DHT22;11726;50.122;8.832;2023-04-24T02:55:26;12.40;99.90
23114;DHT22;11726;50.122;8.832;2023-04-24T02:57:53;12.30;99.90
23114;DHT22;11726;50.122;8.832;2023-04-24T03:00:19;12.30;99.90
23114;DHT22;11726;50.122;8.832;2023-04-24T03:02:46;12.30;99.90
23114;DHT22;11726;50.122;8.832;2023-04-24T03:05:13;12.30;99.90
23114;DHT22;11726;50.122;8.832;2023-04-24T03:07:40;12.20;99.90
23114;DHT22;11726;50.122;8.832;2023-04-24T03:10:08;12.20;99.90
23114;DHT22;11726;50.122;8.832;2023-04-24T03:12:35;12.30;99.90
23114;DHT22;11726;50.122;8.832;2023-04-24T03:15:02;12.30;99.90
23114;DHT22;11726;50.122;8.832;2023-04-24T03:17:28;12.30;99.90
23114;DHT22;11726;50.122;8.832;2023-04-24T03:19:55;12.20;99.90
23114;DHT22;11726;50.122;8.832;2023-04-24T03:22:21;12.20;99.90
23114;DHT22;11726;50.122;8.832;2023-04-24T03:24:48;12.10;99.90
23114;DHT22;11726;50.122;8.832;2023-04-24T03:27:15;12.20;99.90
23114;DHT22;11726;50.122;8.832;2023-04-24T03:29:41;12.20;99.90
23114;DHT22;11726;50.122;8.832;2023-04-24T03:32:08;12.20;99.90
23114;DHT22;11726;50.122;8.832;2023-04-24T03:34:35;12.20;99.90
23114;DHT22;11726;50.122;8.832;2023-04-24T03:37:01;12.20;99.90
23114;DHT22;11726;50.122;8.832;2023-04-24T03:39:28;12.10;99.90
23114;DHT22;11726;50.122;8.832;2023-04-24T03:41:55;12.10;99.90
23114;DHT22;11726;50.122;8.832;2023-04-24T03:44:22;12.10;99.90
23114;DHT22;11726;50.122;8.832;2023-04-24T03:46:48;12.00;99.90
23114;DHT22;11726;50.122;8.832;2023-04-24T03:49:15;12.00;99.90
23114;DHT22;11726;50.122;8.832;2023-04-24T03:51:42;12.00;99.90
23114;DHT22;11726;50.122;8.832;2023-04-24T03:54:08;12.00;99.90
23114;DHT22;11726;50.122;8.832;2023-04-24T03:56:35;12.00;99.90
23114;DHT22;11726;50.122;8.832;2023-04-24T03:59:02;12.00;99.90
23114;DHT22;11726;50.122;8.832;2023-04-24T04:01:28;12.00;99.90
23114;DHT22;11726;50.122;8.832;2023-04-24T04:03:55;11.90;99.90
23114;DHT22;11726;50.122;8.832;2023-04-24T04:06:22;11.90;99.90
23114;DHT22;11726;50.122;8.832;2023-04-24T04:08:48;11.80;99.90
23114;DHT22;11726;50.122;8.832;2023-04-24T04:11:15;11.70;99.90
23114;DHT22;11726;50.122;8.832;2023-04-24T04:13:42;11.70;99.90
23114;DHT22;11726;50.122;8.832;2023-04-24T04:16:09;11.70;99.90
23114;DHT22;11726;50.122;8.832;2023-04-24T04:18:35;11.70;99.90
23114;DHT22;11726;50.122;8.832;2023-04-24T04:21:02;11.70;99.90
23114;DHT22;11726;50.122;8.832;2023-04-24T04:23:29;11.60;99.90
23114;DHT22;11726;50.122;8.832;2023-04-24T04:25:56;11.60;99.90
23114;DHT22;11726;50.122;8.832;2023-04-24T04:28:22;11.60;99.90
23114;DHT22;11726;50.122;8.832;2023-04-24T04:30:49;11.60;99.90
23114;DHT22;11726;50.122;8.832;2023-04-24T04:33:15;11.50;99.90
23114;DHT22;11726;50.122;8.832;2023-04-24T04:35:42;11.50;99.90
23114;DHT22;11726;50.122;8.832;2023-04-24T04:38:09;11.50;99.90
23114;DHT22;11726;50.122;8.832;2023-04-24T04:40:37;11.50;99.90
23114;DHT22;11726;50.122;8.832;2023-04-24T04:43:03;11.50;99.90
23114;DHT22;11726;50.122;8.832;2023-04-24T04:45:30;11.50;99.90
23114;DHT22;11726;50.122;8.832;2023-04-24T04:47:57;11.50;99.90
23114;DHT22;11726;50.122;8.832;2023-04-24T04:50:23;11.40;99.90
23114;DHT22;11726;50.122;8.832;2023-04-24T04:52:50;11.30;99.90
23114;DHT22;11726;50.122;8.832;2023-04-24T04:55:16;11.30;99.90
23114;DHT22;11726;50.122;8.832;2023-04-24T04:57:44;11.30;99.90
23114;DHT22;11726;50.122;8.832;2023-04-24T05:00:12;11.30;99.90
23114;DHT22;11726;50.122;8.832;2023-04-24T05:02:38;11.30;99.90
23114;DHT22;11726;50.122;8.832;2023-04-24T05:05:06;11.40;99.90
23114;DHT22;11726;50.122;8.832;2023-04-24T05:07:33;11.30;99.90
23114;DHT22;11726;50.122;8.832;2023-04-24T05:10:00;11.20;99.90
23114;DHT22;11726;50.122;8.832;2023-04-24T05:12:27;11.20;99.90
23114;DHT22;11726;50.122;8.832;2023-04-24T05:14:53;11.20;99.90
23114;DHT22;11726;50.122;8.832;2023-04-24T05:17:20;11.10;99.90
23114;DHT22;11726;50.122;8.832;2023-04-24T05:19:47;11.20;99.90
23114;DHT22;11726;50.122;8.832;2023-04-24T05:22:14;11.10;99.90
23114;DHT22;11726;50.122;8.832;2023-04-24T05:24:41;11.20;99.90
23114;DHT22;11726;50.122;8.832;2023-04-24T05:27:08;11.20;99.90
23114;DHT22;11726;50.122;8.832;2023-04-24T05:29:35;11.30;99.90
23114;DHT22;11726;50.122;8.832;2023-04-24T05:32:02;11.30;99.90
23114;DHT22;11726;50.122;8.832;2023-04-24T05:34:28;11.40;99.90
23114;DHT22;11726;50.122;8.832;2023-04-24T05:36:55;11.40;99.90
23114;DHT22;11726;50.122;8.832;2023-04-24T05:39:21;11.40;99.90
23114;DHT22;11726;50.122;8.832;2023-04-24T05:41:48;11.40;99.90
23114;DHT22;11726;50.122;8.832;2023-04-24T05:44:15;11.40;99.90
23114;DHT22;11726;50.122;8.832;2023-04-24T05:46:41;11.50;99.90
23114;DHT22;11726;50.122;8.832;2023-04-24T05:49:08;11.50;99.90
23114;DHT22;11726;50.122;8.832;2023-04-24T05:51:34;11.50;99.90
23114;DHT22;11726;50.122;8.832;2023-04-24T05:54:01;11.50;99.90
23114;DHT22;11726;50.122;8.832;2023-04-24T05:56:29;11.50;99.90
23114;DHT22;11726;50.122;8.832;2023-04-24T05:58:56;11.70;99.90
23114;DHT22;11726;50.122;8.832;2023-04-24T06:01:22;11.70;99.90
23114;DHT22;11726;50.122;8.832;2023-04-24T06:03:49;11.70;99.90
23114;DHT22;11726;50.122;8.832;2023-04-24T06:06:16;11.70;99.90
23114;DHT22;11726;50.122;8.832;2023-04-24T06:08:43;11.70;99.90
23114;DHT22;11726;50.122;8.832;2023-04-24T06:11:11;11.80;99.90
23114;DHT22;11726;50.122;8.832;2023-04-24T06:13:38;11.80;99.90
23114;DHT22;11726;50.122;8.832;2023-04-24T06:16:05;11.90;99.90
23114;DHT22;11726;50.122;8.832;2023-04-24T06:18:32;11.80;99.90
23114;DHT22;11726;50.122;8.832;2023-04-24T06:20:58;11.90;99.90
23114;DHT22;11726;50.122;8.832;2023-04-24T06:23:25;12.00;99.90
23114;DHT22;11726;50.122;8.832;2023-04-24T06:25:51;11.90;99.90
23114;DHT22;11726;50.122;8.832;2023-04-24T06:28:18;11.70;99.90
23114;DHT22;11726;50.122;8.832;2023-04-24T06:30:45;11.80;99.90
23114;DHT22;11726;50.122;8.832;2023-04-24T06:33:11;11.70;99.90
23114;DHT22;11726;50.122;8.832;2023-04-24T06:35:47;11.70;99.90
23114;DHT22;11726;50.122;8.832;2023-04-24T06:38:14;11.70;99.90
23114;DHT22;11726;50.122;8.832;2023-04-24T06:40:40;11.80;99.90
23114;DHT22;11726;50.122;8.832;2023-04-24T06:43:07;11.60;99.90
23114;DHT22;11726;50.122;8.832;2023-04-24T06:45:34;11.50;99.90
23114;DHT22;11726;50.122;8.832;2023-04-24T06:48:00;11.60;99.90
23114;DHT22;11726;50.122;8.832;2023-04-24T06:50:27;11.80;99.90
23114;DHT22;11726;50.122;8.832;2023-04-24T06:52:54;11.70;99.90
23114;DHT22;11726;50.122;8.832;2023-04-24T06:55:20;11.70;99.90
23114;DHT22;11726;50.122;8.832;2023-04-24T06:57:47;11.50;99.90
23114;DHT22;11726;50.122;8.832;2023-04-24T07:00:14;11.60;99.90
23114;DHT22;11726;50.122;8.832;2023-04-24T07:02:40;11.50;99.90
23114;DHT22;11726;50.122;8.832;2023-04-24T07:05:07;11.50;99.90
23114;DHT22;11726;50.122;8.832;2023-04-24T07:07:34;11.70;99.90
23114;DHT22;11726;50.122;8.832;2023-04-24T07:10:04;11.70;99.90
23114;DHT22;11726;50.122;8.832;2023-04-24T07:12:31;11.70;99.90
23114;DHT22;11726;50.122;8.832;2023-04-24T07:14:58;11.70;99.90
23114;DHT22;11726;50.122;8.832;2023-04-24T07:17:25;11.90;99.90
23114;DHT22;11726;50.122;8.832;2023-04-24T07:19:52;11.90;99.90
23114;DHT22;11726;50.122;8.832;2023-04-24T07:22:18;12.00;99.90
23114;DHT22;11726;50.122;8.832;2023-04-24T07:24:45;12.10;99.90
23114;DHT22;11726;50.122;8.832;2023-04-24T07:27:11;12.30;99.90
23114;DHT22;11726;50.122;8.832;2023-04-24T07:29:38;12.30;99.90
23114;DHT22;11726;50.122;8.832;2023-04-24T07:32:06;12.50;99.90
23114;DHT22;11726;50.122;8.832;2023-04-24T07:34:34;12.60;99.90
23114;DHT22;11726;50.122;8.832;2023-04-24T07:37:01;12.50;99.90
23114;DHT22;11726;50.122;8.832;2023-04-24T07:39:28;12.70;99.90
23114;DHT22;11726;50.122;8.832;2023-04-24T07:41:55;12.70;99.90
23114;DHT22;11726;50.122;8.832;2023-04-24T07:44:22;12.80;99.90
23114;DHT22;11726;50.122;8.832;2023-04-24T07:46:48;12.70;99.90
23114;DHT22;11726;50.122;8.832;2023-04-24T07:49:15;12.70;99.90
23114;DHT22;11726;50.122;8.832;2023-04-24T07:51:45;12.70;99.90
23114;DHT22;11726;50.122;8.832;2023-04-24T07:54:12;12.80;99.90
23114;DHT22;11726;50.122;8.832;2023-04-24T07:56:40;12.80;99.90
23114;DHT22;11726;50.122;8.832;2023-04-24T07:59:08;12.90;99.90
23114;DHT22;11726;50.122;8.832;2023-04-24T08:01:36;12.90;99.90
23114;DHT22;11726;50.122;8.832;2023-04-24T08:04:03;12.90;99.90
23114;DHT22;11726;50.122;8.832;2023-04-24T08:06:30;13.10;99.90
23114;DHT22;11726;50.122;8.832;2023-04-24T08:08:58;13.00;99.90
23114;DHT22;11726;50.122;8.832;2023-04-24T08:11:26;12.90;99.90
23114;DHT22;11726;50.122;8.832;2023-04-24T08:13:53;13.00;99.90
23114;DHT22;11726;50.122;8.832;2023-04-24T08:16:20;13.10;99.90
23114;DHT22;11726;50.122;8.832;2023-04-24T08:18:47;12.70;99.90
23114;DHT22;11726;50.122;8.832;2023-04-24T08:21:14;12.70;99.90
23114;DHT22;11726;50.122;8.832;2023-04-24T08:23:43;12.60;99.90
23114;DHT22;11726;50.122;8.832;2023-04-24T08:26:10;12.50;99.90
23114;DHT22;11726;50.122;8.832;2023-04-24T08:28:37;12.80;99.90
23114;DHT22;11726;50.122;8.832;2023-04-24T08:31:04;13.00;99.90
23114;DHT22;11726;50.122;8.832;2023-04-24T08:33:31;13.20;99.90
23114;DHT22;11726;50.122;8.832;2023-04-24T08:36:05;13.40;99.90
23114;DHT22;11726;50.122;8.832;2023-04-24T08:38:31;13.30;99.90
23114;DHT22;11726;50.122;8.832;2023-04-24T08:40:59;13.30;99.90
23114;DHT22;11726;50.122;8.832;2023-04-24T08:43:27;13.40;99.90
23114;DHT22;11726;50.122;8.832;2023-04-24T08:45:56;13.40;99.90
23114;DHT22;11726;50.122;8.832;2023-04-24T08:48:23;13.50;99.90
23114;DHT22;11726;50.122;8.832;2023-04-24T08:50:57;13.50;99.90
23114;DHT22;11726;50.122;8.832;2023-04-24T08:53:24;13.80;99.90
23114;DHT22;11726;50.122;8.832;2023-04-24T08:55:54;13.90;99.90
23114;DHT22;11726;50.122;8.832;2023-04-24T08:58:24;14.00;99.90
23114;DHT22;11726;50.122;8.832;2023-04-24T09:00:53;14.10;99.90
23114;DHT22;11726;50.122;8.832;2023-04-24T09:03:21;14.10;99.90
23114;DHT22;11726;50.122;8.832;2023-04-24T09:05:49;14.20;99.90
23114;DHT22;11726;50.122;8.832;2023-04-24T09:08:19;14.00;99.90
23114;DHT22;11726;50.122;8.832;2023-04-24T09:10:46;13.90;99.90
23114;DHT22;11726;50.122;8.832;2023-04-24T09:13:17;13.80;99.90
23114;DHT22;11726;50.122;8.832;2023-04-24T09:15:45;13.70;99.90
23114;DHT22;11726;50.122;8.832;2023-04-24T09:18:11;13.50;99.90
23114;DHT22;11726;50.122;8.832;2023-04-24T09:23:27;13.30;99.90
23114;DHT22;11726;50.122;8.832;2023-04-24T09:25:57;13.20;99.90
23114;DHT22;11726;50.122;8.832;2023-04-24T09:28:29;13.20;99.90
23114;DHT22;11726;50.122;8.832;2023-04-24T09:31:11;13.00;99.90
23114;DHT22;11726;50.122;8.832;2023-04-24T09:33:40;12.90;99.90
23114;DHT22;11726;50.122;8.832;2023-04-24T09:36:09;12.90;99.90
23114;DHT22;11726;50.122;8.832;2023-04-24T09:38:37;13.00;99.90
23114;DHT22;11726;50.122;8.832;2023-04-24T09:41:07;13.00;99.90
23114;DHT22;11726;50.122;8.832;2023-04-24T09:43:35;12.90;99.90
23114;DHT22;11726;50.122;8.832;2023-04-24T09:46:07;12.90;99.90
23114;DHT22;11726;50.122;8.832;2023-04-24T09:48:36;13.00;99.90
23114;DHT22;11726;50.122;8.832;2023-04-24T09:51:05;13.10;99.90
23114;DHT22;11726;50.122;8.832;2023-04-24T09:53:37;13.10;99.90
23114;DHT22;11726;50.122;8.832;2023-04-24T09:56:10;12.90;99.90
23114;DHT22;11726;50.122;8.832;2023-04-24T09:58:39;12.80;99.90
23114;DHT22;11726;50.122;8.832;2023-04-24T10:01:06;12.80;99.90
23114;DHT22;11726;50.122;8.832;2023-04-24T10:03:33;12.80;99.90
23114;DHT22;11726;50.122;8.832;2023-04-24T10:06:01;12.80;99.90
23114;DHT22;11726;50.122;8.832;2023-04-24T10:08:35;12.70;99.90
23114;DHT22;11726;50.122;8.832;2023-04-24T10:11:03;12.70;99.90
23114;DHT22;11726;50.122;8.832;2023-04-24T10:13:30;12.70;99.90
23114;DHT22;11726;50.122;8.832;2023-04-24T10:15:59;12.70;99.90
23114;DHT22;11726;50.122;8.832;2023-04-24T10:18:27;12.70;99.90
23114;DHT22;11726;50.122;8.832;2023-04-24T10:20:54;12.90;99.90
23114;DHT22;11726;50.122;8.832;2023-04-24T10:23:22;12.80;99.90
23114;DHT22;11726;50.122;8.832;2023-04-24T10:25:50;12.90;99.90
23114;DHT22;11726;50.122;8.832;2023-04-24T10:28:19;13.00;99.90
23114;DHT22;11726;50.122;8.832;2023-04-24T10:30:47;12.90;99.90
23114;DHT22;11726;50.122;8.832;2023-04-24T10:33:13;12.80;99.90
23114;DHT22;11726;50.122;8.832;2023-04-24T10:35:44;12.80;99.90
23114;DHT22;11726;50.122;8.832;2023-04-24T10:38:13;12.70;99.90
23114;DHT22;11726;50.122;8.832;2023-04-24T10:40:42;12.60;99.90
23114;DHT22;11726;50.122;8.832;2023-04-24T10:43:09;12.40;99.90
23114;DHT22;11726;50.122;8.832;2023-04-24T10:45:39;12.50;99.90
23114;DHT22;11726;50.122;8.832;2023-04-24T10:48:08;12.40;99.90
23114;DHT22;11726;50.122;8.832;2023-04-24T10:50:51;12.30;99.90
23114;DHT22;11726;50.122;8.832;2023-04-24T10:53:28;12.10;99.90
23114;DHT22;11726;50.122;8.832;2023-04-24T10:55:59;12.10;99.90
23114;DHT22;11726;50.122;8.832;2023-04-24T10:58:43;12.10;99.90
23114;DHT22;11726;50.122;8.832;2023-04-24T11:01:28;12.00;99.90
23114;DHT22;11726;50.122;8.832;2023-04-24T11:03:59;12.10;99.90
23114;DHT22;11726;50.122;8.832;2023-04-24T11:06:36;12.30;99.90
23114;DHT22;11726;50.122;8.832;2023-04-24T11:09:10;12.40;99.90
23114;DHT22;11726;50.122;8.832;2023-04-24T11:11:45;12.50;99.90
23114;DHT22;11726;50.122;8.832;2023-04-24T11:14:14;12.60;99.90
23114;DHT22;11726;50.122;8.832;2023-04-24T11:16:42;12.70;99.90
23114;DHT22;11726;50.122;8.832;2023-04-24T11:21:48;12.90;99.90
23114;DHT22;11726;50.122;8.832;2023-04-24T11:24:28;13.10;99.90
23114;DHT22;11726;50.122;8.832;2023-04-24T11:26:57;13.30;99.90
23114;DHT22;11726;50.122;8.832;2023-04-24T11:29:39;13.50;99.90
23114;DHT22;11726;50.122;8.832;2023-04-24T11:32:26;13.70;99.90
23114;DHT22;11726;50.122;8.832;2023-04-24T11:34:54;13.70;99.90
23114;DHT22;11726;50.122;8.832;2023-04-24T11:37:24;13.70;99.90
23114;DHT22;11726;50.122;8.832;2023-04-24T11:39:55;13.90;99.90
23114;DHT22;11726;50.122;8.832;2023-04-24T11:42:22;13.70;99.90
23114;DHT22;11726;50.122;8.832;2023-04-24T11:44:52;13.70;99.90
23114;DHT22;11726;50.122;8.832;2023-04-24T11:47:19;13.80;99.90
23114;DHT22;11726;50.122;8.832;2023-04-24T11:49:45;13.70;99.90
23114;DHT22;11726;50.122;8.832;2023-04-24T11:52:15;13.80;99.90
23114;DHT22;11726;50.122;8.832;2023-04-24T11:54:49;13.90;99.90
23114;DHT22;11726;50.122;8.832;2023-04-24T11:57:20;14.40;99.90
23114;DHT22;11726;50.122;8.832;2023-04-24T11:59:49;14.50;99.90
23114;DHT22;11726;50.122;8.832;2023-04-24T12:02:25;14.00;99.90
23114;DHT22;11726;50.122;8.832;2023-04-24T12:04:53;14.20;99.90
23114;DHT22;11726;50.122;8.832;2023-04-24T12:07:21;14.50;99.90
23114;DHT22;11726;50.122;8.832;2023-04-24T12:09:57;14.40;99.90
23114;DHT22;11726;50.122;8.832;2023-04-24T12:12:26;14.10;99.90
23114;DHT22;11726;50.122;8.832;2023-04-24T12:14:58;14.10;99.90
23114;DHT22;11726;50.122;8.832;2023-04-24T12:17:27;14.10;99.90
23114;DHT22;11726;50.122;8.832;2023-04-24T12:20:03;14.00;99.90
23114;DHT22;11726;50.122;8.832;2023-04-24T12:22:49;14.00;99.90
23114;DHT22;11726;50.122;8.832;2023-04-24T12:25:18;14.10;99.90
23114;DHT22;11726;50.122;8.832;2023-04-24T12:27:46;14.00;99.90
23114;DHT22;11726;50.122;8.832;2023-04-24T12:30:15;13.60;99.90
23114;DHT22;11726;50.122;8.832;2023-04-24T12:32:46;13.50;99.90
23114;DHT22;11726;50.122;8.832;2023-04-24T12:35:18;13.20;99.90
23114;DHT22;11726;50.122;8.832;2023-04-24T12:37:46;13.30;99.90
23114;DHT22;11726;50.122;8.832;2023-04-24T12:40:14;13.20;99.90
23114;DHT22;11726;50.122;8.832;2023-04-24T12:42:49;13.00;99.90
23114;DHT22;11726;50.122;8.832;2023-04-24T12:45:17;12.60;99.90
23114;DHT22;11726;50.122;8.832;2023-04-24T12:47:45;12.50;99.90
23114;DHT22;11726;50.122;8.832;2023-04-24T12:50:14;12.50;99.90
23114;DHT22;11726;50.122;8.832;2023-04-24T12:52:42;12.60;99.90
23114;DHT22;11726;50.122;8.832;2023-04-24T12:55:09;12.80;99.90
23114;DHT22;11726;50.122;8.832;2023-04-24T12:57:38;12.50;99.90
23114;DHT22;11726;50.122;8.832;2023-04-24T13:00:07;12.70;99.90
23114;DHT22;11726;50.122;8.832;2023-04-24T13:02:34;12.80;99.90
23114;DHT22;11726;50.122;8.832;2023-04-24T13:05:02;12.60;99.90
23114;DHT22;11726;50.122;8.832;2023-04-24T13:07:29;12.50;99.90
23114;DHT22;11726;50.122;8.832;2023-04-24T13:09:56;12.70;99.90
23114;DHT22;11726;50.122;8.832;2023-04-24T13:12:24;12.90;99.90
23114;DHT22;11726;50.122;8.832;2023-04-24T13:14:51;12.70;99.90
23114;DHT22;11726;50.122;8.832;2023-04-24T13:17:18;13.00;99.90
23114;DHT22;11726;50.122;8.832;2023-04-24T13:19:45;13.20;99.90
23114;DHT22;11726;50.122;8.832;2023-04-24T13:22:12;13.50;99.90
23114;DHT22;11726;50.122;8.832;2023-04-24T13:24:40;13.70;99.90
23114;DHT22;11726;50.122;8.832;2023-04-24T13:27:08;13.80;99.90
23114;DHT22;11726;50.122;8.832;2023-04-24T13:29:36;13.70;99.90
23114;DHT22;11726;50.122;8.832;2023-04-24T13:32:03;13.60;99.90
23114;DHT22;11726;50.122;8.832;2023-04-24T13:34:30;14.00;99.90
23114;DHT22;11726;50.122;8.832;2023-04-24T13:36:57;14.80;99.90
23114;DHT22;11726;50.122;8.832;2023-04-24T13:39:25;14.80;99.90
23114;DHT22;11726;50.122;8.832;2023-04-24T13:41:53;14.60;99.90
23114;DHT22;11726;50.122;8.832;2023-04-24T13:44:20;14.50;99.90
23114;DHT22;11726;50.122;8.832;2023-04-24T13:46:48;14.30;99.90
23114;DHT22;11726;50.122;8.832;2023-04-24T13:49:15;14.40;99.90
23114;DHT22;11726;50.122;8.832;2023-04-24T13:51:42;14.40;99.90
23114;DHT22;11726;50.122;8.832;2023-04-24T13:54:09;14.40;99.90
23114;DHT22;11726;50.122;8.832;2023-04-24T13:56:36;14.10;99.90
23114;DHT22;11726;50.122;8.832;2023-04-24T13:59:02;13.80;99.90
23114;DHT22;11726;50.122;8.832;2023-04-24T14:01:29;13.10;99.90
23114;DHT22;11726;50.122;8.832;2023-04-24T14:03:56;12.70;99.90
23114;DHT22;11726;50.122;8.832;2023-04-24T14:06:23;12.70;99.90
23114;DHT22;11726;50.122;8.832;2023-04-24T14:08:50;12.70;99.90
23114;DHT22;11726;50.122;8.832;2023-04-24T14:11:17;12.90;99.90
23114;DHT22;11726;50.122;8.832;2023-04-24T14:13:44;12.90;99.90
23114;DHT22;11726;50.122;8.832;2023-04-24T14:16:12;12.90;99.90
23114;DHT22;11726;50.122;8.832;2023-04-24T14:18:39;12.90;99.90
23114;DHT22;11726;50.122;8.832;2023-04-24T14:21:06;13.10;99.90
23114;DHT22;11726;50.122;8.832;2023-04-24T14:23:33;13.30;99.90
23114;DHT22;11726;50.122;8.832;2023-04-24T14:25:59;13.70;99.90
23114;DHT22;11726;50.122;8.832;2023-04-24T14:28:26;14.40;99.90
23114;DHT22;11726;50.122;8.832;2023-04-24T14:30:53;15.00;99.90
23114;DHT22;11726;50.122;8.832;2023-04-24T14:33:20;15.60;99.90
23114;DHT22;11726;50.122;8.832;2023-04-24T14:35:47;15.10;99.90
23114;DHT22;11726;50.122;8.832;2023-04-24T14:38:14;15.00;99.90
23114;DHT22;11726;50.122;8.832;2023-04-24T14:40:41;15.70;99.90
23114;DHT22;11726;50.122;8.832;2023-04-24T14:43:11;16.20;99.90
23114;DHT22;11726;50.122;8.832;2023-04-24T14:45:38;16.00;99.80
23114;DHT22;11726;50.122;8.832;2023-04-24T14:48:06;15.80;99.90
23114;DHT22;11726;50.122;8.832;2023-04-24T14:50:35;15.60;99.90
23114;DHT22;11726;50.122;8.832;2023-04-24T14:53:02;15.20;99.90
23114;DHT22;11726;50.122;8.832;2023-04-24T14:55:29;15.00;99.90
23114;DHT22;11726;50.122;8.832;2023-04-24T14:57:56;14.60;99.90
23114;DHT22;11726;50.122;8.832;2023-04-24T15:00:23;14.10;99.90
23114;DHT22;11726;50.122;8.832;2023-04-24T15:02:50;13.80;99.90
23114;DHT22;11726;50.122;8.832;2023-04-24T15:05:17;13.80;99.90
23114;DHT22;11726;50.122;8.832;2023-04-24T15:07:44;13.70;99.90
23114;DHT22;11726;50.122;8.832;2023-04-24T15:10:11;13.80;99.90
23114;DHT22;11726;50.122;8.832;2023-04-24T15:12:38;13.90;99.90
23114;DHT22;11726;50.122;8.832;2023-04-24T15:15:06;14.00;99.90
23114;DHT22;11726;50.122;8.832;2023-04-24T15:17:32;14.00;99.90
23114;DHT22;11726;50.122;8.832;2023-04-24T15:19:59;13.90;99.90
23114;DHT22;11726;50.122;8.832;2023-04-24T15:22:27;13.70;99.90
23114;DHT22;11726;50.122;8.832;2023-04-24T15:24:54;13.80;99.90
23114;DHT22;11726;50.122;8.832;2023-04-24T15:27:20;13.80;99.90
23114;DHT22;11726;50.122;8.832;2023-04-24T15:29:47;13.60;99.90
23114;DHT22;11726;50.122;8.832;2023-04-24T15:32:14;13.70;99.90
23114;DHT22;11726;50.122;8.832;2023-04-24T15:34:41;13.70;99.90
23114;DHT22;11726;50.122;8.832;2023-04-24T15:37:07;13.70;99.90
23114;DHT22;11726;50.122;8.832;2023-04-24T15:39:34;13.70;99.90